sensor_id;sensor_type;location;lat;lon;timestamp;pressure;altitude;pressure_sealevel;temperature;humidity
62926;BME280;55732;52.248;-0.844;2022-12-07T00:01:33;101571.17;;;2.33;91.67
62926;BME280;55732;52.248;-0.844;2022-12-07T00:04:01;101571.96;;;2.32;91.61
62926;BME280;55732;52.248;-0.844;2022-12-07T00:06:35;101570.83;;;2.30;91.62
62926;BME280;55732;52.248;-0.844;2022-12-07T00:09:00;101567.95;;;2.28;91.57
62926;BME280;55732;52.248;-0.844;2022-12-07T00:11:26;101563.73;;;2.27;91.71
62926;BME280;55732;52.248;-0.844;2022-12-07T00:13:54;101557.08;;;2.26;91.74
62926;BME280;55732;52.248;-0.844;2022-12-07T00:16:21;101557.75;;;2.26;91.59
62926;BME280;55732;52.248;-0.844;2022-12-07T00:18:47;101556.35;;;2.25;91.55
62926;BME280;55732;52.248;-0.844;2022-12-07T00:21:15;101559.11;;;2.25;91.68
62926;BME280;55732;52.248;-0.844;2022-12-07T00:23:42;101559.63;;;2.25;91.75
62926;BME280;55732;52.248;-0.844;2022-12-07T00:26:10;101563.95;;;2.24;91.72
62926;BME280;55732;52.248;-0.844;2022-12-07T00:28:36;101569.66;;;2.24;91.69
62926;BME280;55732;52.248;-0.844;2022-12-07T00:31:10;101565.95;;;2.22;91.80
62926;BME280;55732;52.248;-0.844;2022-12-07T00:33:37;101563.31;;;2.22;91.85
62926;BME280;55732;52.248;-0.844;2022-12-07T00:36:07;101557.90;;;2.21;91.70
62926;BME280;55732;52.248;-0.844;2022-12-07T00:38:34;101559.77;;;2.20;91.86
62926;BME280;55732;52.248;-0.844;2022-12-07T00:41:06;101557.80;;;2.19;91.88
62926;BME280;55732;52.248;-0.844;2022-12-07T00:43:31;101561.79;;;2.19;91.89
62926;BME280;55732;52.248;-0.844;2022-12-07T00:45:57;101566.27;;;2.18;91.94
62926;BME280;55732;52.248;-0.844;2022-12-07T00:48:23;101561.66;;;2.16;91.87
62926;BME280;55732;52.248;-0.844;2022-12-07T00:50:49;101562.32;;;2.15;92.08
62926;BME280;55732;52.248;-0.844;2022-12-07T00:53:15;101561.60;;;2.15;92.12
62926;BME280;55732;52.248;-0.844;2022-12-07T00:55:41;101557.92;;;2.14;91.93
62926;BME280;55732;52.248;-0.844;2022-12-07T00:58:07;101554.21;;;2.13;91.97
62926;BME280;55732;52.248;-0.844;2022-12-07T01:00:35;101552.31;;;2.13;91.99
62926;BME280;55732;52.248;-0.844;2022-12-07T01:03:02;101549.17;;;2.13;92.03
62926;BME280;55732;52.248;-0.844;2022-12-07T01:05:27;101549.48;;;2.12;92.08
62926;BME280;55732;52.248;-0.844;2022-12-07T01:07:53;101551.20;;;2.11;92.04
62926;BME280;55732;52.248;-0.844;2022-12-07T01:10:18;101552.02;;;2.10;92.17
62926;BME280;55732;52.248;-0.844;2022-12-07T01:12:44;101553.54;;;2.09;92.04
62926;BME280;55732;52.248;-0.844;2022-12-07T01:15:10;101553.66;;;2.08;92.20
62926;BME280;55732;52.248;-0.844;2022-12-07T01:17:36;101555.21;;;2.08;92.23
62926;BME280;55732;52.248;-0.844;2022-12-07T01:20:01;101553.66;;;2.08;92.27
62926;BME280;55732;52.248;-0.844;2022-12-07T01:22:27;101555.73;;;2.08;92.04
62926;BME280;55732;52.248;-0.844;2022-12-07T01:24:52;101555.83;;;2.07;92.17
62926;BME280;55732;52.248;-0.844;2022-12-07T01:27:18;101557.38;;;2.06;92.22
62926;BME280;55732;52.248;-0.844;2022-12-07T01:29:44;101552.31;;;2.06;92.31
62926;BME280;55732;52.248;-0.844;2022-12-07T01:32:09;101553.33;;;2.05;92.36
62926;BME280;55732;52.248;-0.844;2022-12-07T01:34:35;101556.20;;;2.04;92.19
62926;BME280;55732;52.248;-0.844;2022-12-07T01:37:00;101557.13;;;2.01;92.16
62926;BME280;55732;52.248;-0.844;2022-12-07T01:39:26;101559.51;;;2.00;92.28
62926;BME280;55732;52.248;-0.844;2022-12-07T01:41:52;101556.30;;;1.98;92.26
62926;BME280;55732;52.248;-0.844;2022-12-07T01:44:28;101556.90;;;1.97;92.24
62926;BME280;55732;52.248;-0.844;2022-12-07T01:47:00;101555.41;;;1.95;92.35
62926;BME280;55732;52.248;-0.844;2022-12-07T01:49:42;101554.59;;;1.93;92.10
62926;BME280;55732;52.248;-0.844;2022-12-07T01:52:28;101552.77;;;1.91;92.22
62926;BME280;55732;52.248;-0.844;2022-12-07T01:55:00;101559.40;;;1.88;92.12
62926;BME280;55732;52.248;-0.844;2022-12-07T01:57:27;101559.79;;;1.85;92.06
62926;BME280;55732;52.248;-0.844;2022-12-07T01:59:54;101555.45;;;1.81;92.03
62926;BME280;55732;52.248;-0.844;2022-12-07T02:02:31;101559.14;;;1.79;91.99
62926;BME280;55732;52.248;-0.844;2022-12-07T02:05:00;101554.59;;;1.74;91.78
62926;BME280;55732;52.248;-0.844;2022-12-07T02:07:26;101553.45;;;1.73;92.00
62926;BME280;55732;52.248;-0.844;2022-12-07T02:09:53;101550.36;;;1.70;92.04
62926;BME280;55732;52.248;-0.844;2022-12-07T02:12:19;101546.89;;;1.67;91.86
62926;BME280;55732;52.248;-0.844;2022-12-07T02:14:45;101547.62;;;1.64;91.71
62926;BME280;55732;52.248;-0.844;2022-12-07T02:17:17;101550.22;;;1.60;91.69
62926;BME280;55732;52.248;-0.844;2022-12-07T02:20:13;101552.42;;;1.56;91.51
62926;BME280;55732;52.248;-0.844;2022-12-07T02:22:57;101553.20;;;1.51;91.72
62926;BME280;55732;52.248;-0.844;2022-12-07T02:28:31;101551.14;;;1.44;92.05
62926;BME280;55732;52.248;-0.844;2022-12-07T02:31:04;101549.84;;;1.43;92.19
62926;BME280;55732;52.248;-0.844;2022-12-07T02:33:36;101545.29;;;1.42;92.28
62926;BME280;55732;52.248;-0.844;2022-12-07T02:36:12;101536.41;;;1.41;92.27
62926;BME280;55732;52.248;-0.844;2022-12-07T02:38:48;101533.77;;;1.40;92.29
62926;BME280;55732;52.248;-0.844;2022-12-07T02:41:22;101538.77;;;1.39;92.25
62926;BME280;55732;52.248;-0.844;2022-12-07T02:43:54;101535.52;;;1.37;92.05
62926;BME280;55732;52.248;-0.844;2022-12-07T02:46:23;101536.80;;;1.35;92.28
62926;BME280;55732;52.248;-0.844;2022-12-07T02:48:51;101539.00;;;1.34;92.47
62926;BME280;55732;52.248;-0.844;2022-12-07T02:51:19;101534.98;;;1.33;92.41
62926;BME280;55732;52.248;-0.844;2022-12-07T02:53:44;101530.13;;;1.33;92.64
62926;BME280;55732;52.248;-0.844;2022-12-07T03:02:17;101521.60;;;1.39;92.87
62926;BME280;55732;52.248;-0.844;2022-12-07T03:05:15;101524.48;;;1.42;92.83
62926;BME280;55732;52.248;-0.844;2022-12-07T03:10:27;101518.81;;;1.43;92.82
62926;BME280;55732;52.248;-0.844;2022-12-07T03:16:14;101509.42;;;1.46;93.05
62926;BME280;55732;52.248;-0.844;2022-12-07T03:19:00;101506.91;;;1.48;93.09
62926;BME280;55732;52.248;-0.844;2022-12-07T03:21:32;101502.67;;;1.50;93.19
62926;BME280;55732;52.248;-0.844;2022-12-07T03:24:00;101501.20;;;1.52;93.06
62926;BME280;55732;52.248;-0.844;2022-12-07T03:26:32;101498.29;;;1.52;92.95
62926;BME280;55732;52.248;-0.844;2022-12-07T03:29:03;101496.59;;;1.54;92.94
62926;BME280;55732;52.248;-0.844;2022-12-07T03:31:32;101492.94;;;1.53;92.85
62926;BME280;55732;52.248;-0.844;2022-12-07T03:34:14;101491.53;;;1.53;92.95
62926;BME280;55732;52.248;-0.844;2022-12-07T03:37:03;101484.61;;;1.54;92.95
62926;BME280;55732;52.248;-0.844;2022-12-07T03:39:41;101491.09;;;1.55;92.92
62926;BME280;55732;52.248;-0.844;2022-12-07T03:42:11;101490.80;;;1.56;92.77
62926;BME280;55732;52.248;-0.844;2022-12-07T03:44:38;101489.46;;;1.57;92.84
62926;BME280;55732;52.248;-0.844;2022-12-07T03:49:48;101490.48;;;1.56;92.87
62926;BME280;55732;52.248;-0.844;2022-12-07T03:52:24;101493.55;;;1.55;92.69
62926;BME280;55732;52.248;-0.844;2022-12-07T03:57:30;101488.67;;;1.51;92.71
62926;BME280;55732;52.248;-0.844;2022-12-07T03:59:58;101494.92;;;1.48;92.56
62926;BME280;55732;52.248;-0.844;2022-12-07T04:02:27;101499.29;;;1.45;92.28
62926;BME280;55732;52.248;-0.844;2022-12-07T04:04:55;101494.93;;;1.41;92.28
62926;BME280;55732;52.248;-0.844;2022-12-07T04:07:20;101498.64;;;1.38;92.45
62926;BME280;55732;52.248;-0.844;2022-12-07T04:09:46;101501.05;;;1.35;92.20
62926;BME280;55732;52.248;-0.844;2022-12-07T04:12:12;101496.83;;;1.30;92.00
62926;BME280;55732;52.248;-0.844;2022-12-07T04:14:37;101494.36;;;1.26;92.12
62926;BME280;55732;52.248;-0.844;2022-12-07T04:17:03;101498.29;;;1.22;92.11
62926;BME280;55732;52.248;-0.844;2022-12-07T04:19:31;101492.77;;;1.19;92.11
62926;BME280;55732;52.248;-0.844;2022-12-07T04:21:58;101502.77;;;1.18;92.39
62926;BME280;55732;52.248;-0.844;2022-12-07T04:24:25;101497.84;;;1.16;92.50
62926;BME280;55732;52.248;-0.844;2022-12-07T04:26:51;101495.58;;;1.16;92.64
62926;BME280;55732;52.248;-0.844;2022-12-07T04:29:17;101501.80;;;1.15;92.55
62926;BME280;55732;52.248;-0.844;2022-12-07T04:31:43;101499.48;;;1.15;92.52
62926;BME280;55732;52.248;-0.844;2022-12-07T04:34:10;101499.08;;;1.14;92.59
62926;BME280;55732;52.248;-0.844;2022-12-07T04:36:35;101498.88;;;1.13;92.53
62926;BME280;55732;52.248;-0.844;2022-12-07T04:39:03;101499.02;;;1.12;92.71
62926;BME280;55732;52.248;-0.844;2022-12-07T04:41:29;101496.91;;;1.12;92.52
62926;BME280;55732;52.248;-0.844;2022-12-07T04:43:55;101497.11;;;1.09;92.49
62926;BME280;55732;52.248;-0.844;2022-12-07T04:46:22;101495.73;;;1.06;92.43
62926;BME280;55732;52.248;-0.844;2022-12-07T04:48:48;101489.45;;;1.02;92.12
62926;BME280;55732;52.248;-0.844;2022-12-07T04:51:18;101489.21;;;0.97;91.84
62926;BME280;55732;52.248;-0.844;2022-12-07T04:53:44;101486.98;;;0.91;91.72
62926;BME280;55732;52.248;-0.844;2022-12-07T04:56:09;101483.87;;;0.85;91.74
62926;BME280;55732;52.248;-0.844;2022-12-07T04:58:34;101484.13;;;0.79;91.66
62926;BME280;55732;52.248;-0.844;2022-12-07T05:01:00;101483.38;;;0.75;91.53
62926;BME280;55732;52.248;-0.844;2022-12-07T05:03:25;101487.49;;;0.71;91.56
62926;BME280;55732;52.248;-0.844;2022-12-07T05:05:50;101486.92;;;0.66;91.58
62926;BME280;55732;52.248;-0.844;2022-12-07T05:08:16;101486.85;;;0.62;91.53
62926;BME280;55732;52.248;-0.844;2022-12-07T05:10:41;101481.15;;;0.59;91.73
62926;BME280;55732;52.248;-0.844;2022-12-07T05:13:07;101483.98;;;0.57;91.78
62926;BME280;55732;52.248;-0.844;2022-12-07T05:15:32;101484.86;;;0.54;91.86
62926;BME280;55732;52.248;-0.844;2022-12-07T05:17:58;101480.53;;;0.54;92.00
62926;BME280;55732;52.248;-0.844;2022-12-07T05:20:23;101478.41;;;0.53;91.84
62926;BME280;55732;52.248;-0.844;2022-12-07T05:22:48;101480.15;;;0.53;91.91
62926;BME280;55732;52.248;-0.844;2022-12-07T05:25:14;101475.48;;;0.53;92.03
62926;BME280;55732;52.248;-0.844;2022-12-07T05:27:39;101482.42;;;0.54;91.96
62926;BME280;55732;52.248;-0.844;2022-12-07T05:30:05;101480.94;;;0.55;91.93
62926;BME280;55732;52.248;-0.844;2022-12-07T05:32:31;101480.58;;;0.58;92.22
62926;BME280;55732;52.248;-0.844;2022-12-07T05:34:56;101481.08;;;0.61;92.32
62926;BME280;55732;52.248;-0.844;2022-12-07T05:37:21;101482.27;;;0.64;92.33
62926;BME280;55732;52.248;-0.844;2022-12-07T05:39:47;101482.39;;;0.66;92.34
62926;BME280;55732;52.248;-0.844;2022-12-07T05:42:12;101483.77;;;0.69;92.31
62926;BME280;55732;52.248;-0.844;2022-12-07T05:44:42;101487.64;;;0.70;92.16
62926;BME280;55732;52.248;-0.844;2022-12-07T05:47:09;101484.88;;;0.70;92.17
62926;BME280;55732;52.248;-0.844;2022-12-07T05:49:34;101478.63;;;0.70;92.08
62926;BME280;55732;52.248;-0.844;2022-12-07T05:52:00;101477.42;;;0.70;92.04
62926;BME280;55732;52.248;-0.844;2022-12-07T05:54:26;101472.70;;;0.69;92.10
62926;BME280;55732;52.248;-0.844;2022-12-07T05:56:52;101474.56;;;0.68;92.33
62926;BME280;55732;52.248;-0.844;2022-12-07T05:59:17;101479.86;;;0.67;91.86
62926;BME280;55732;52.248;-0.844;2022-12-07T06:02:01;101476.98;;;0.65;91.95
62926;BME280;55732;52.248;-0.844;2022-12-07T06:04:32;101473.81;;;0.64;92.08
62926;BME280;55732;52.248;-0.844;2022-12-07T06:06:58;101478.32;;;0.61;91.67
62926;BME280;55732;52.248;-0.844;2022-12-07T06:09:25;101471.13;;;0.56;91.65
62926;BME280;55732;52.248;-0.844;2022-12-07T06:11:52;101469.04;;;0.53;91.69
62926;BME280;55732;52.248;-0.844;2022-12-07T06:14:36;101466.38;;;0.52;91.81
62926;BME280;55732;52.248;-0.844;2022-12-07T06:17:02;101462.08;;;0.49;91.77
62926;BME280;55732;52.248;-0.844;2022-12-07T06:19:27;101456.20;;;0.46;91.61
62926;BME280;55732;52.248;-0.844;2022-12-07T06:21:53;101452.04;;;0.43;91.50
62926;BME280;55732;52.248;-0.844;2022-12-07T06:24:19;101457.06;;;0.40;91.50
62926;BME280;55732;52.248;-0.844;2022-12-07T06:26:45;101462.06;;;0.36;91.34
62926;BME280;55732;52.248;-0.844;2022-12-07T06:29:12;101456.09;;;0.31;91.12
62926;BME280;55732;52.248;-0.844;2022-12-07T06:31:38;101458.22;;;0.26;91.12
62926;BME280;55732;52.248;-0.844;2022-12-07T06:34:06;101454.77;;;0.22;91.18
62926;BME280;55732;52.248;-0.844;2022-12-07T06:36:32;101455.01;;;0.21;91.38
62926;BME280;55732;52.248;-0.844;2022-12-07T06:38:57;101458.28;;;0.17;91.42
62926;BME280;55732;52.248;-0.844;2022-12-07T06:41:23;101460.16;;;0.14;91.31
62926;BME280;55732;52.248;-0.844;2022-12-07T06:43:49;101462.42;;;0.11;91.35
62926;BME280;55732;52.248;-0.844;2022-12-07T06:46:15;101462.47;;;0.08;91.44
62926;BME280;55732;52.248;-0.844;2022-12-07T06:48:41;101459.09;;;0.07;91.58
62926;BME280;55732;52.248;-0.844;2022-12-07T06:51:07;101456.58;;;0.05;91.66
62926;BME280;55732;52.248;-0.844;2022-12-07T06:53:32;101459.75;;;0.04;91.57
62926;BME280;55732;52.248;-0.844;2022-12-07T06:55:58;101461.50;;;0.00;91.48
62926;BME280;55732;52.248;-0.844;2022-12-07T06:58:23;101463.10;;;-0.03;91.37
62926;BME280;55732;52.248;-0.844;2022-12-07T07:00:49;101463.30;;;-0.05;91.61
62926;BME280;55732;52.248;-0.844;2022-12-07T07:03:16;101464.73;;;-0.07;91.52
62926;BME280;55732;52.248;-0.844;2022-12-07T07:05:42;101466.23;;;-0.08;91.56
62926;BME280;55732;52.248;-0.844;2022-12-07T07:08:09;101468.23;;;-0.10;91.70
62926;BME280;55732;52.248;-0.844;2022-12-07T07:10:34;101468.17;;;-0.10;91.82
62926;BME280;55732;52.248;-0.844;2022-12-07T07:13:00;101472.82;;;-0.11;91.95
62926;BME280;55732;52.248;-0.844;2022-12-07T07:15:25;101478.77;;;-0.10;92.00
62926;BME280;55732;52.248;-0.844;2022-12-07T07:17:51;101475.10;;;-0.10;91.92
62926;BME280;55732;52.248;-0.844;2022-12-07T07:20:16;101473.15;;;-0.11;92.13
62926;BME280;55732;52.248;-0.844;2022-12-07T07:22:42;101472.08;;;-0.12;92.13
62926;BME280;55732;52.248;-0.844;2022-12-07T07:25:07;101475.53;;;-0.12;92.19
62926;BME280;55732;52.248;-0.844;2022-12-07T07:27:33;101473.30;;;-0.12;92.17
62926;BME280;55732;52.248;-0.844;2022-12-07T07:29:58;101475.16;;;-0.13;92.13
62926;BME280;55732;52.248;-0.844;2022-12-07T07:32:23;101470.12;;;-0.13;92.07
62926;BME280;55732;52.248;-0.844;2022-12-07T07:34:49;101468.02;;;-0.14;92.06
62926;BME280;55732;52.248;-0.844;2022-12-07T07:37:14;101464.84;;;-0.15;92.12
62926;BME280;55732;52.248;-0.844;2022-12-07T07:39:39;101464.51;;;-0.15;92.15
62926;BME280;55732;52.248;-0.844;2022-12-07T07:42:05;101463.39;;;-0.13;92.19
62926;BME280;55732;52.248;-0.844;2022-12-07T07:44:33;101468.79;;;-0.12;92.13
62926;BME280;55732;52.248;-0.844;2022-12-07T07:46:59;101470.42;;;-0.14;91.87
62926;BME280;55732;52.248;-0.844;2022-12-07T07:49:24;101467.77;;;-0.15;91.77
62926;BME280;55732;52.248;-0.844;2022-12-07T07:51:49;101466.55;;;-0.15;91.84
62926;BME280;55732;52.248;-0.844;2022-12-07T07:54:15;101465.72;;;-0.14;91.90
62926;BME280;55732;52.248;-0.844;2022-12-07T07:56:40;101463.30;;;-0.15;91.88
62926;BME280;55732;52.248;-0.844;2022-12-07T07:59:06;101465.20;;;-0.15;91.74
62926;BME280;55732;52.248;-0.844;2022-12-07T08:01:31;101462.52;;;-0.16;91.78
62926;BME280;55732;52.248;-0.844;2022-12-07T08:03:56;101466.96;;;-0.14;91.85
62926;BME280;55732;52.248;-0.844;2022-12-07T08:06:22;101471.91;;;-0.12;91.73
62926;BME280;55732;52.248;-0.844;2022-12-07T08:08:47;101467.00;;;-0.10;91.74
62926;BME280;55732;52.248;-0.844;2022-12-07T08:11:12;101472.34;;;-0.07;91.71
62926;BME280;55732;52.248;-0.844;2022-12-07T08:13:38;101474.92;;;-0.05;91.55
62926;BME280;55732;52.248;-0.844;2022-12-07T08:16:09;101472.41;;;-0.03;91.51
62926;BME280;55732;52.248;-0.844;2022-12-07T08:18:37;101474.97;;;-0.01;91.46
62926;BME280;55732;52.248;-0.844;2022-12-07T08:21:03;101478.75;;;0.03;91.25
62926;BME280;55732;52.248;-0.844;2022-12-07T08:23:30;101478.34;;;0.04;91.19
62926;BME280;55732;52.248;-0.844;2022-12-07T08:26:03;101475.20;;;0.07;91.16
62926;BME280;55732;52.248;-0.844;2022-12-07T08:28:29;101474.74;;;0.12;91.25
62926;BME280;55732;52.248;-0.844;2022-12-07T08:30:59;101471.86;;;0.16;91.13
62926;BME280;55732;52.248;-0.844;2022-12-07T08:33:25;101472.36;;;0.21;91.21
62926;BME280;55732;52.248;-0.844;2022-12-07T08:35:51;101477.20;;;0.28;91.23
62926;BME280;55732;52.248;-0.844;2022-12-07T08:38:16;101477.42;;;0.35;91.25
62926;BME280;55732;52.248;-0.844;2022-12-07T08:40:42;101478.66;;;0.42;91.10
62926;BME280;55732;52.248;-0.844;2022-12-07T08:43:07;101478.25;;;0.50;91.18
62926;BME280;55732;52.248;-0.844;2022-12-07T08:45:32;101475.80;;;0.59;90.87
62926;BME280;55732;52.248;-0.844;2022-12-07T08:48:09;101474.74;;;0.69;90.78
62926;BME280;55732;52.248;-0.844;2022-12-07T08:50:37;101464.52;;;0.79;90.52
62926;BME280;55732;52.248;-0.844;2022-12-07T08:53:04;101460.25;;;0.90;90.42
62926;BME280;55732;52.248;-0.844;2022-12-07T08:55:30;101454.38;;;1.01;90.29
62926;BME280;55732;52.248;-0.844;2022-12-07T08:57:58;101454.00;;;1.10;90.06
62926;BME280;55732;52.248;-0.844;2022-12-07T09:00:25;101457.40;;;1.19;89.91
62926;BME280;55732;52.248;-0.844;2022-12-07T09:02:51;101460.79;;;1.28;89.93
62926;BME280;55732;52.248;-0.844;2022-12-07T09:05:17;101459.86;;;1.33;89.77
62926;BME280;55732;52.248;-0.844;2022-12-07T09:07:49;101451.46;;;1.39;89.61
62926;BME280;55732;52.248;-0.844;2022-12-07T09:10:17;101449.98;;;1.44;89.33
62926;BME280;55732;52.248;-0.844;2022-12-07T09:12:43;101449.17;;;1.49;89.14
62926;BME280;55732;52.248;-0.844;2022-12-07T09:15:08;101450.79;;;1.54;89.04
62926;BME280;55732;52.248;-0.844;2022-12-07T09:17:34;101452.61;;;1.59;88.92
62926;BME280;55732;52.248;-0.844;2022-12-07T09:20:02;101454.55;;;1.63;88.97
62926;BME280;55732;52.248;-0.844;2022-12-07T09:22:30;101450.34;;;1.66;88.83
62926;BME280;55732;52.248;-0.844;2022-12-07T09:24:57;101452.21;;;1.69;88.52
62926;BME280;55732;52.248;-0.844;2022-12-07T09:27:23;101451.77;;;1.70;88.55
62926;BME280;55732;52.248;-0.844;2022-12-07T09:29:48;101452.73;;;1.69;88.47
62926;BME280;55732;52.248;-0.844;2022-12-07T09:32:13;101452.46;;;1.70;88.48
62926;BME280;55732;52.248;-0.844;2022-12-07T09:34:39;101450.08;;;1.74;88.40
62926;BME280;55732;52.248;-0.844;2022-12-07T09:37:04;101448.22;;;1.83;88.41
62926;BME280;55732;52.248;-0.844;2022-12-07T09:39:30;101456.69;;;1.93;88.24
62926;BME280;55732;52.248;-0.844;2022-12-07T09:41:57;101455.05;;;2.02;88.11
62926;BME280;55732;52.248;-0.844;2022-12-07T09:44:25;101450.46;;;2.08;87.92
62926;BME280;55732;52.248;-0.844;2022-12-07T09:46:52;101448.35;;;2.15;87.83
62926;BME280;55732;52.248;-0.844;2022-12-07T09:49:23;101451.08;;;2.21;87.80
62926;BME280;55732;52.248;-0.844;2022-12-07T09:52:25;101454.66;;;2.28;87.56
62926;BME280;55732;52.248;-0.844;2022-12-07T09:54:52;101452.86;;;2.34;87.45
62926;BME280;55732;52.248;-0.844;2022-12-07T09:57:25;101450.42;;;2.41;87.45
62926;BME280;55732;52.248;-0.844;2022-12-07T10:00:03;101447.12;;;2.49;87.15
62926;BME280;55732;52.248;-0.844;2022-12-07T10:02:39;101444.00;;;2.57;87.00
62926;BME280;55732;52.248;-0.844;2022-12-07T10:05:12;101450.50;;;2.66;87.00
62926;BME280;55732;52.248;-0.844;2022-12-07T10:07:38;101445.09;;;2.74;86.74
62926;BME280;55732;52.248;-0.844;2022-12-07T10:10:06;101438.83;;;2.81;86.51
62926;BME280;55732;52.248;-0.844;2022-12-07T10:12:56;101433.58;;;2.88;86.33
62926;BME280;55732;52.248;-0.844;2022-12-07T10:15:22;101429.52;;;2.95;86.07
62926;BME280;55732;52.248;-0.844;2022-12-07T10:17:50;101427.48;;;3.00;85.98
62926;BME280;55732;52.248;-0.844;2022-12-07T10:20:22;101427.02;;;3.10;85.71
62926;BME280;55732;52.248;-0.844;2022-12-07T10:23:05;101423.52;;;3.22;85.72
62926;BME280;55732;52.248;-0.844;2022-12-07T10:25:36;101421.44;;;3.38;85.49
62926;BME280;55732;52.248;-0.844;2022-12-07T10:33:44;101426.70;;;4.05;84.38
62926;BME280;55732;52.248;-0.844;2022-12-07T10:39:01;101422.52;;;4.56;83.62
62926;BME280;55732;52.248;-0.844;2022-12-07T10:41:28;101420.92;;;4.79;83.29
62926;BME280;55732;52.248;-0.844;2022-12-07T10:43:56;101412.36;;;4.99;82.54
62926;BME280;55732;52.248;-0.844;2022-12-07T10:46:46;101408.20;;;5.10;82.08
62926;BME280;55732;52.248;-0.844;2022-12-07T10:55:18;101397.85;;;5.19;81.63
62926;BME280;55732;52.248;-0.844;2022-12-07T10:57:56;101396.48;;;5.25;81.52
62926;BME280;55732;52.248;-0.844;2022-12-07T11:00:25;101393.66;;;5.35;81.01
62926;BME280;55732;52.248;-0.844;2022-12-07T11:11:26;101381.98;;;5.73;79.55
62926;BME280;55732;52.248;-0.844;2022-12-07T11:14:05;101376.02;;;5.78;79.29
62926;BME280;55732;52.248;-0.844;2022-12-07T11:28:06;101371.61;;;5.99;78.39
62926;BME280;55732;52.248;-0.844;2022-12-07T11:30:46;101366.25;;;6.07;78.24
62926;BME280;55732;52.248;-0.844;2022-12-07T11:33:50;101360.66;;;6.13;78.15
62926;BME280;55732;52.248;-0.844;2022-12-07T11:36:40;101353.65;;;6.12;77.91
62926;BME280;55732;52.248;-0.844;2022-12-07T11:41:42;101342.05;;;6.04;77.50
62926;BME280;55732;52.248;-0.844;2022-12-07T11:46:50;101335.48;;;6.00;76.89
62926;BME280;55732;52.248;-0.844;2022-12-07T11:54:57;101333.02;;;5.77;77.20
62926;BME280;55732;52.248;-0.844;2022-12-07T11:57:33;101328.13;;;5.72;77.29
62926;BME280;55732;52.248;-0.844;2022-12-07T12:00:04;101329.57;;;5.62;77.15
62926;BME280;55732;52.248;-0.844;2022-12-07T12:02:47;101325.92;;;5.52;77.10
62926;BME280;55732;52.248;-0.844;2022-12-07T12:05:18;101324.44;;;5.44;77.30
62926;BME280;55732;52.248;-0.844;2022-12-07T12:07:46;101314.98;;;5.37;77.58
62926;BME280;55732;52.248;-0.844;2022-12-07T12:10:35;101306.54;;;5.35;77.84
62926;BME280;55732;52.248;-0.844;2022-12-07T12:21:22;101297.59;;;5.34;77.15
62926;BME280;55732;52.248;-0.844;2022-12-07T12:24:04;101297.90;;;5.32;77.40
62926;BME280;55732;52.248;-0.844;2022-12-07T12:26:36;101297.73;;;5.27;77.35
62926;BME280;55732;52.248;-0.844;2022-12-07T12:29:25;101292.70;;;5.23;77.55
62926;BME280;55732;52.248;-0.844;2022-12-07T12:32:17;101292.09;;;5.19;77.25
62926;BME280;55732;52.248;-0.844;2022-12-07T12:45:29;101276.88;;;4.92;77.27
62926;BME280;55732;52.248;-0.844;2022-12-07T12:47:59;101273.30;;;4.89;77.45
62926;BME280;55732;52.248;-0.844;2022-12-07T12:58:29;101253.81;;;4.86;77.67
62926;BME280;55732;52.248;-0.844;2022-12-07T13:03:58;101248.75;;;4.86;77.79
62926;BME280;55732;52.248;-0.844;2022-12-07T13:08:49;101250.13;;;4.90;77.82
62926;BME280;55732;52.248;-0.844;2022-12-07T13:11:27;101247.06;;;4.92;77.91
62926;BME280;55732;52.248;-0.844;2022-12-07T13:16:58;101242.46;;;4.90;77.74
62926;BME280;55732;52.248;-0.844;2022-12-07T13:19:53;101242.34;;;4.87;77.80
62926;BME280;55732;52.248;-0.844;2022-12-07T13:24:57;101236.51;;;4.85;77.89
62926;BME280;55732;52.248;-0.844;2022-12-07T13:27:25;101228.72;;;4.81;77.50
62926;BME280;55732;52.248;-0.844;2022-12-07T13:29:52;101223.48;;;4.76;77.70
62926;BME280;55732;52.248;-0.844;2022-12-07T13:32:26;101219.41;;;4.74;78.08
62926;BME280;55732;52.248;-0.844;2022-12-07T13:34:52;101216.05;;;4.72;78.00
62926;BME280;55732;52.248;-0.844;2022-12-07T13:37:25;101215.04;;;4.68;78.16
62926;BME280;55732;52.248;-0.844;2022-12-07T13:40:12;101206.45;;;4.66;78.21
62926;BME280;55732;52.248;-0.844;2022-12-07T13:42:43;101204.05;;;4.67;78.25
62926;BME280;55732;52.248;-0.844;2022-12-07T13:45:32;101207.17;;;4.67;78.48
62926;BME280;55732;52.248;-0.844;2022-12-07T13:48:34;101194.59;;;4.67;78.26
62926;BME280;55732;52.248;-0.844;2022-12-07T13:51:03;101193.49;;;4.65;78.20
62926;BME280;55732;52.248;-0.844;2022-12-07T13:53:29;101191.17;;;4.64;78.36
62926;BME280;55732;52.248;-0.844;2022-12-07T13:56:00;101184.59;;;4.60;78.29
62926;BME280;55732;52.248;-0.844;2022-12-07T13:58:27;101179.37;;;4.55;78.44
62926;BME280;55732;52.248;-0.844;2022-12-07T14:00:55;101177.06;;;4.54;78.56
62926;BME280;55732;52.248;-0.844;2022-12-07T14:03:28;101177.39;;;4.53;78.47
62926;BME280;55732;52.248;-0.844;2022-12-07T14:08:32;101174.80;;;4.48;78.24
62926;BME280;55732;52.248;-0.844;2022-12-07T14:10:58;101170.52;;;4.40;78.35
62926;BME280;55732;52.248;-0.844;2022-12-07T14:15:56;101156.57;;;4.29;78.72
62926;BME280;55732;52.248;-0.844;2022-12-07T14:18:39;101161.20;;;4.27;78.83
62926;BME280;55732;52.248;-0.844;2022-12-07T14:23:32;101158.27;;;4.23;78.73
62926;BME280;55732;52.248;-0.844;2022-12-07T14:26:12;101157.27;;;4.19;78.95
62926;BME280;55732;52.248;-0.844;2022-12-07T14:28:42;101154.46;;;4.13;79.09
62926;BME280;55732;52.248;-0.844;2022-12-07T14:31:12;101157.77;;;4.08;79.02
62926;BME280;55732;52.248;-0.844;2022-12-07T14:33:38;101159.91;;;4.05;79.11
62926;BME280;55732;52.248;-0.844;2022-12-07T14:36:04;101157.30;;;3.99;79.23
62926;BME280;55732;52.248;-0.844;2022-12-07T14:38:30;101156.98;;;3.95;79.32
62926;BME280;55732;52.248;-0.844;2022-12-07T14:40:56;101154.35;;;3.90;79.44
62926;BME280;55732;52.248;-0.844;2022-12-07T14:43:45;101154.41;;;3.86;79.60
62926;BME280;55732;52.248;-0.844;2022-12-07T14:46:10;101153.42;;;3.84;79.75
62926;BME280;55732;52.248;-0.844;2022-12-07T14:48:35;101150.68;;;3.80;79.76
62926;BME280;55732;52.248;-0.844;2022-12-07T14:51:01;101150.29;;;3.79;79.97